Cambridge, Kansas
Current Conditions -  °F | °C
As of 6:54 AM on Wednesday 26 Nov 2014 (Local Time) from KWLD Reporting Station
Few Clouds Few Clouds  
Wind Chill: 34°   Ceiling: Unl
Heat Index: 39°   Visibility: 10mi
Dew Point: 31°   Wind: 7mph
Humidity: 73%   Direction: 310°NW
Pressure: 30.05"   Gusts: NA
Location:  37.32°N, 96.66°W
Report Text: KWLD 261254Z AUTO 31006KT 10SM FEW120 04/M01 A3005 RMK AO2 SLP179 T00391006
Loading
Personal Weather Stations






























Interactive Weather Map New forecast layout! Learn more

10-Day Weather Forecast

Advertisements
Track Severe Weather on mobile